METAR Data
IDs: Format: Raw Decoded Include TAF

Data at: 0006 UTC 26 Oct 2021

KSWW 252355Z AUTO 15006KT 10SM CLR 29/09 A2994 RMK AO2 T02930086 10343 20293
KSWW 252335Z AUTO 15009KT 10SM CLR 31/09 A2993 RMK AO2 T03110087
KSWW 252315Z AUTO 15009KT 10SM CLR 32/10 A2993 RMK AO2 T03220100
KSWW 252255Z AUTO 15007KT 10SM CLR 33/10 A2993 RMK AO2 T03300102
KSWW 252235Z AUTO 15008KT 10SM CLR 34/09 A2993 RMK AO2 T03350092
KSWW 252215Z AUTO 19009KT 10SM CLR 34/09 A2993 RMK AO2 T03380086
KSWW 252155Z AUTO 18009G16KT 10SM CLR 34/07 A2994 RMK AO2 T03410072
KSWW 252135Z AUTO 18010KT 10SM CLR 34/07 A2994 RMK AO2 T03420066
KSWW 252115Z AUTO 19005G16KT 10SM CLR 34/07 A2995 RMK AO2 T03420066
KSWW 252055Z AUTO 17008KT 10SM CLR 34/07 A2995 RMK AO2 T03420072
KSWW 252035Z AUTO 17011KT 10SM CLR 34/07 A2995 RMK AO2 T03420067
KSWW 252015Z AUTO 19011G16KT 10SM CLR 34/06 A2996 RMK AO2 T03430060
KSWW 251955Z AUTO 16011G17KT 10SM CLR 34/07 A2996 RMK AO2 T03400072
KSWW 251935Z AUTO 19010KT 10SM CLR 34/07 A2997 RMK AO2 T03380068
KSWW 251915Z AUTO 18009G16KT 10SM CLR 33/08 A2998 RMK AO2 T03320075
KSWW 251855Z AUTO 20012KT 10SM CLR 33/09 A2999 RMK AO2 T03270088
KSWW 251835Z AUTO 19013KT 10SM CLR 32/09 A3000 RMK AO2 T03230094
KSWW 251815Z AUTO 20010G18KT 10SM CLR 32/10 A3001 RMK AO2 T03190101
KSWW 251755Z AUTO 21011G16KT 10SM CLR 31/11 A3002 RMK AO2 T03100110 10310 20141
KSWW 251735Z AUTO 20012KT 10SM CLR 30/12 A3003 RMK AO2 T02960123
KSWW 251715Z AUTO 19012KT 10SM CLR 29/13 A3003 RMK AO2 T02900134
KSWW 251655Z AUTO 23009KT 10SM CLR 29/14 A3004 RMK AO2 T02870137
KSWW 251635Z AUTO 22008KT 10SM CLR 29/12 A3003 RMK AO2 T02860115
KSWW 251615Z AUTO 22006KT 10SM CLR 28/09 A3004 RMK AO2 T02800087
KSWW 251555Z AUTO 22008KT 10SM CLR 27/06 A3004 RMK AO2 T02720056
KSWW 251535Z AUTO 23006KT 10SM CLR 26/08 A3003 RMK AO2 T02610078
KSWW 251515Z AUTO 20008KT 10SM CLR 25/09 A3004 RMK AO2 T02490085
KSWW 251455Z AUTO 20006KT 10SM CLR 23/12 A3004 RMK AO2 T02330119
KSWW 251435Z AUTO 17004KT 10SM CLR 22/12 A3004 RMK AO2 T02150117
KSWW 251415Z AUTO 15005KT 10SM CLR 20/11 A3003 RMK AO2 T01960108
KSWW 251355Z AUTO 15006KT 10SM CLR 18/10 A3003 RMK AO2 T01800098
KSWW 251335Z AUTO 16005KT 10SM CLR 16/08 A3003 RMK AO2 T01600079
KSWW 251315Z AUTO 17007KT 10SM CLR 15/06 A3002 RMK AO2 T01460059
KSWW 251255Z AUTO 16007KT 10SM CLR 14/04 A3002 RMK AO2 T01440044
KSWW 251235Z AUTO 15005KT 10SM CLR 15/05 A3001 RMK AO2 T01510052
KSWW 251215Z AUTO 14004KT 10SM CLR 15/05 A3001 RMK AO2 T01510047
KSWW 251155Z AUTO 12005KT 10SM CLR 15/05 A3001 RMK AO2 T01530051 10185 20145
KSWW 251135Z AUTO 11004KT 10SM CLR 15/05 A3001 RMK AO2 T01530048
KSWW 251115Z AUTO 11004KT 10SM CLR 15/05 A3001 RMK AO2 T01530047
KSWW 251055Z AUTO 12004KT 10SM CLR 15/04 A3001 RMK AO2 T01460036
KSWW 251035Z AUTO 13005KT 10SM CLR 15/04 A3000 RMK AO2 T01460039
KSWW 251015Z AUTO 14004KT 10SM CLR 15/04 A3001 RMK AO2 T01470040
KSWW 250955Z AUTO 16008KT 10SM CLR 15/03 A3000 RMK AO2 T01520032
KSWW 250935Z AUTO 16006KT 10SM CLR 17/03 A3000 RMK AO2 T01650033
KSWW 250915Z AUTO 12005KT 10SM CLR 17/04 A3000 RMK AO2 T01710041
KSWW 250855Z AUTO 12005KT 10SM CLR 17/04 A3000 RMK AO2 T01700042
KSWW 250835Z AUTO 11005KT 10SM CLR 17/04 A2999 RMK AO2 T01700041
KSWW 250815Z AUTO 11006KT 10SM CLR 17/04 A3000 RMK AO2 T01670041
KSWW 250755Z AUTO 12007KT 10SM CLR 17/04 A3000 RMK AO2 T01660038
KSWW 250735Z AUTO 12007KT 10SM CLR 17/04 A3000 RMK AO2 T01700037
KSWW 250715Z AUTO 12007KT 10SM CLR 17/02 A3000 RMK AO2 T01710022
KSWW 250655Z AUTO 13006KT 10SM CLR 18/03 A3000 RMK AO2 T01760028
KSWW 250635Z AUTO 11004KT 10SM CLR 18/02 A3000 RMK AO2 T01780021
KSWW 250615Z AUTO 09005KT 10SM CLR 18/02 A3000 RMK AO2 T01830024
KSWW 250555Z AUTO 07006KT 10SM CLR 18/03 A3000 RMK AO2 T01780028 10280 20178 403280178
KSWW 250535Z AUTO 07006KT 10SM CLR 18/02 A3000 RMK AO2 T01840017
KSWW 250515Z AUTO 08006KT 10SM CLR 19/02 A3000 RMK AO2 T01860024
KSWW 250455Z AUTO 07006KT 5SM CLR 19/02 A3000 RMK AO2 T01870021
KSWW 250435Z AUTO 05006KT 7SM CLR 19/02 A2999 RMK AO2 T01870020
KSWW 250415Z AUTO 06005KT 3SM CLR 19/02 A2999 RMK AO2 T01900015
KSWW 250355Z AUTO 06006KT 2 1/2SM CLR 19/01 A2998 RMK AO2 T01940005
KSWW 250335Z AUTO 04007KT 7SM CLR 20/00 A2997 RMK AO2 T02030002
KSWW 250315Z AUTO 36007KT 10SM CLR 22/00 A2996 RMK AO2 T02220000
KSWW 250255Z AUTO 24006KT 10SM CLR 22/M01 A2994 RMK AO2 T02241006
KSWW 250235Z AUTO 23007KT 10SM CLR 23/M01 A2994 RMK AO2 T02281008
KSWW 250215Z AUTO 23006KT 10SM CLR 24/M01 A2993 RMK AO2 T02351009
KSWW 250155Z AUTO 23006KT 10SM CLR 24/M01 A2992 RMK AO2 T02401010
KSWW 250135Z AUTO 23006KT 10SM CLR 24/00 A2992 RMK AO2 T02361001
KSWW 250115Z AUTO 22006KT 10SM CLR 24/00 A2991 RMK AO2 T02430000
KSWW 250055Z AUTO 21006KT 10SM CLR 25/M01 A2990 RMK AO2 T02511007
KSWW 250035Z AUTO 20005KT 10SM CLR 26/M01 A2989 RMK AO2 T02601009
KSWW 250015Z AUTO 21005KT 10SM CLR 27/M01 A2989 RMK AO2 T02701008
KSWW 242355Z AUTO 21004KT 10SM CLR 28/M01 A2988 RMK AO2 T02811010 10328 20281
KSWW 242335Z AUTO 24004KT 10SM CLR 30/M01 A2988 RMK AO2 T02991015
KSWW 242315Z AUTO 23004KT 10SM CLR 31/M01 A2988 RMK AO2 T03111011
KSWW 242255Z AUTO 25006KT 10SM CLR 32/M01 A2988 RMK AO2 T03171011
KSWW 242235Z AUTO 24007KT 10SM CLR 32/M01 A2987 RMK AO2 T03201012
KSWW 242215Z AUTO 26009KT 10SM CLR 32/M01 A2987 RMK AO2 T03211015
KSWW 242155Z AUTO 25012KT 10SM CLR 33/M02 A2987 RMK AO2 T03251017
KSWW 242135Z AUTO 27008KT 10SM CLR 33/M02 A2987 RMK AO2 T03261019
KSWW 242115Z AUTO 27010G16KT 10SM CLR 33/M02 A2987 RMK AO2 T03281016
KSWW 242055Z AUTO 27008KT 10SM CLR 33/M01 A2986 RMK AO2 T03271013
KSWW 242035Z AUTO 27009G16KT 10SM CLR 33/M01 A2986 RMK AO2 T03251009
KSWW 242015Z AUTO 28010KT 10SM CLR 32/00 A2987 RMK AO2 T03221004
KSWW 241955Z AUTO 27012G15KT 10SM CLR 32/00 A2987 RMK AO2 T03211002
KSWW 241935Z AUTO 29013G18KT 10SM CLR 32/00 A2987 RMK AO2 T03170000
KSWW 241915Z AUTO 27012G19KT 10SM CLR 32/00 A2988 RMK AO2 T03171001
KSWW 241855Z AUTO 28012G16KT 10SM CLR 31/00 A2988 RMK AO2 T03120000
KSWW 241835Z AUTO 26012G16KT 10SM CLR 31/00 A2989 RMK AO2 T03100003
KSWW 241815Z AUTO 28011KT 10SM CLR 31/02 A2989 RMK AO2 T03050017
KSWW 241755Z AUTO 25009G21KT 10SM CLR 30/02 A2990 RMK AO2 T02980024 10298 20195
KSWW 241735Z AUTO 25009G13KT 10SM CLR 29/04 A2991 RMK AO2 T02900043
KSWW 241715Z AUTO 26014G18KT 10SM CLR 29/08 A2991 RMK AO2 T02860083
KSWW 241655Z AUTO 25011G16KT 10SM CLR 28/10 A2991 RMK AO2 T02770101
KSWW 241635Z AUTO 24016G20KT 10SM CLR 27/12 A2991 RMK AO2 T02730121
KSWW 241615Z AUTO 24014G19KT 10SM CLR 27/14 A2991 RMK AO2 T02650143
KSWW 241555Z AUTO 23015G19KT 10SM CLR 26/15 A2991 RMK AO2 T02560150
KSWW 241535Z AUTO 23014G18KT 10SM CLR 25/16 A2991 RMK AO2 T02480161
KSWW 241515Z AUTO 22015KT 10SM CLR 24/17 A2990 RMK AO2 T02400165
KSWW 241455Z AUTO 21014KT 10SM CLR 23/17 A2990 RMK AO2 T02300173
KSWW 241435Z AUTO 21012KT 10SM CLR 22/18 A2990 RMK AO2 T02210182
KSWW 241415Z AUTO 20012KT 10SM CLR 21/18 A2989 RMK AO2 T02110181
KSWW 241355Z AUTO 19009KT 10SM CLR 21/18 A2988 RMK AO2 T02050180
KSWW 241335Z AUTO 19008KT 10SM CLR 20/17 A2988 RMK AO2 T01960171
KSWW 241315Z AUTO 20009KT 10SM CLR 20/17 A2988 RMK AO2 T01950168
KSWW 241255Z AUTO 20010KT 10SM CLR 20/17 A2987 RMK AO2 T01950167
KSWW 241235Z AUTO 19011KT 10SM CLR 20/17 A2987 RMK AO2 T01960167
KSWW 241215Z AUTO 20011KT 10SM CLR 20/17 A2986 RMK AO2 T01970167